Portada
METAR-TAF:

METAR-TAF

Aeroports :

Aeroport d'Albacete

Albacete, Espanya

latitud: 38-57N, longitud: 001-51W, altitud: 702 m

Observació

L'informe es va fer fa 20 minuts, a les 17:00 UTC
Vent 4 kt del Nord-Oest, variant entre Oest/Sud-Oest i Nord/Nord-Est
Temperatura 31°C
Humitat 21%
Pressió 1019 hPa
Visibilitat 10 km o més
sense núvols per sota de 1500 mi sense presència de cumulonimbus.

METAR: LEAB 181700Z 32004KT 240V020 CAVOK 31/06 Q1019 NOSIG

Hora: 19:20 (17:20 UTC)

Pronòstic

L'informe es va fer fa 3 hores i 20 minuts, a les 14:00 UTC
Pronòstic vàlid del 18 a les 15 UTC al 18 a les 24 UTC
Vent 6 kt del Nord-Est
Visibilitat 10 km o més
sense núvols per sota de 1500 mi sense presència de cumulonimbus.

TAF: LEAB 181400Z 1815/1824 04006KT CAVOK

Observacions i pronòstics meteorològics de més de 4000 aeroports (METAR i TAF).

Les estacions disponibles són els punts grocs i vermells al mapa.

Posi el ratolí al punt desitjat per veure el nom de l'estació.

Feu clic per veure les observacions i els pronòstics meteorològics.

Per canviar el mapa: feu clic els botons verds amb una creu de color negre per apropar; al botó verd amb un guió per allunyar la imatge; o en les fletxes verdes per a mapes adjacents.


METAR-TAF: